createdAt,value
2023-01-04T00:01:23.911Z,15.82
2023-01-04T00:03:56.472Z,20.35
2023-01-04T00:06:29.620Z,14.10
2023-01-04T00:09:02.269Z,22.17
2023-01-04T00:11:35.186Z,18.33
2023-01-04T00:14:08.076Z,14.07
2023-01-04T00:16:41.056Z,18.55
2023-01-04T00:19:13.733Z,25.08
2023-01-04T00:21:46.689Z,18.25
2023-01-04T00:24:19.407Z,16.73
2023-01-04T00:26:52.414Z,26.88
2023-01-04T00:29:25.831Z,16.98
2023-01-04T00:31:58.743Z,21.55
2023-01-04T00:34:31.339Z,20.63
2023-01-04T00:37:04.253Z,17.80
2023-01-04T00:39:36.887Z,15.45
2023-01-04T00:42:09.784Z,17.73
2023-01-04T00:44:42.439Z,13.70
2023-01-04T00:47:15.424Z,15.80
2023-01-04T00:49:48.010Z,15.93
2023-01-04T00:52:20.923Z,17.83
2023-01-04T00:54:53.550Z,18.50
2023-01-04T00:57:26.405Z,16.00
2023-01-04T00:59:58.918Z,20.08
2023-01-04T01:02:31.936Z,18.05
2023-01-04T01:05:04.832Z,15.27
2023-01-04T01:07:37.775Z,15.95
2023-01-04T01:10:10.458Z,21.73
2023-01-04T01:12:43.607Z,18.38
2023-01-04T01:15:16.121Z,24.50
2023-01-04T01:17:49.086Z,20.92
2023-01-04T01:20:21.602Z,20.00
2023-01-04T01:22:54.475Z,26.90
2023-01-04T01:25:27.055Z,32.53
2023-01-04T01:27:59.872Z,28.77
2023-01-04T01:30:32.402Z,20.67
2023-01-04T01:33:05.216Z,29.15
2023-01-04T01:35:37.927Z,20.25
2023-01-04T01:38:10.908Z,22.73
2023-01-04T01:40:43.746Z,31.08
2023-01-04T01:43:20.156Z,21.73
2023-01-04T01:45:57.540Z,23.45
2023-01-04T01:48:30.539Z,18.92
2023-01-04T01:51:04.290Z,19.27
2023-01-04T01:53:40.941Z,14.07
2023-01-04T01:56:16.751Z,15.80
2023-01-04T01:58:52.970Z,15.73
2023-01-04T02:01:26.118Z,19.55
2023-01-04T02:03:59.175Z,19.08
2023-01-04T02:06:34.089Z,26.00
2023-01-04T02:09:09.996Z,17.88
2023-01-04T02:11:43.136Z,19.40
2023-01-04T02:14:28.712Z,17.63
2023-01-04T02:17:17.338Z,15.52
2023-01-04T02:19:50.363Z,10.85
2023-01-04T02:22:41.502Z,13.98
2023-01-04T02:25:17.772Z,14.82
2023-01-04T02:28:07.075Z,13.73
2023-01-04T02:30:46.082Z,20.30
2023-01-04T02:33:18.679Z,20.25
2023-01-04T02:35:59.799Z,14.98
2023-01-04T02:38:44.175Z,17.40
2023-01-04T02:41:36.943Z,20.92
2023-01-04T02:44:32.987Z,14.73
2023-01-04T02:47:10.459Z,13.00
2023-01-04T02:50:05.156Z,17.13
2023-01-04T02:52:38.409Z,11.45
2023-01-04T02:55:11.006Z,18.50
2023-01-04T02:57:55.891Z,13.45
2023-01-04T03:00:34.534Z,15.20
2023-01-04T03:03:26.168Z,13.48
2023-01-04T03:06:18.915Z,18.10
2023-01-04T03:08:57.866Z,16.70
2023-01-04T03:11:52.690Z,15.32
2023-01-04T03:14:31.962Z,19.70
2023-01-04T03:17:08.815Z,21.77
2023-01-04T03:19:51.854Z,14.70
2023-01-04T03:22:46.634Z,15.68
2023-01-04T03:25:41.840Z,14.95
2023-01-04T03:28:34.146Z,13.05
2023-01-04T03:31:35.520Z,21.73
2023-01-04T03:34:34.373Z,17.92
2023-01-04T03:37:27.534Z,11.57
2023-01-04T03:40:21.830Z,13.32
2023-01-04T03:43:31.980Z,10.23
2023-01-04T03:46:32.190Z,15.60
2023-01-04T03:49:11.054Z,8.88
2023-01-04T03:51:44.771Z,14.57
2023-01-04T03:54:17.585Z,22.17
2023-01-04T03:56:50.550Z,13.20
2023-01-04T03:59:23.941Z,14.85
2023-01-04T04:01:56.515Z,11.30
2023-01-04T04:04:48.025Z,15.65
2023-01-04T04:07:38.795Z,13.27
2023-01-04T04:10:11.812Z,12.40
2023-01-04T04:12:44.335Z,11.98
2023-01-04T04:15:17.183Z,9.43
2023-01-04T04:17:49.689Z,10.40
2023-01-04T04:20:22.618Z,15.95
2023-01-04T04:22:55.120Z,12.63
2023-01-04T04:25:28.079Z,8.93
2023-01-04T04:28:00.751Z,10.30
2023-01-04T04:30:34.064Z,17.58
2023-01-04T04:33:06.615Z,13.88
2023-01-04T04:35:39.529Z,20.25
2023-01-04T04:38:12.375Z,19.55
2023-01-04T04:41:04.378Z,15.25
2023-01-04T04:43:37.033Z,20.45
2023-01-04T04:46:10.457Z,19.10
2023-01-04T04:48:43.106Z,21.83
2023-01-04T04:51:16.286Z,27.60
2023-01-04T04:53:48.819Z,27.27
2023-01-04T04:56:21.748Z,31.20
2023-01-04T04:58:54.469Z,24.85
2023-01-04T05:01:27.480Z,28.58
2023-01-04T05:04:00.214Z,29.90
2023-01-04T05:06:33.173Z,38.10
2023-01-04T05:09:05.746Z,30.02
2023-01-04T05:11:57.175Z,33.85
2023-01-04T05:14:29.749Z,29.50
2023-01-04T05:17:02.747Z,32.40
2023-01-04T05:19:35.649Z,32.08
2023-01-04T05:22:08.574Z,27.67
2023-01-04T05:24:41.148Z,29.67
2023-01-04T05:27:14.011Z,29.65
2023-01-04T05:30:05.147Z,24.05
2023-01-04T05:32:38.042Z,29.80
2023-01-04T05:35:10.573Z,26.60
2023-01-04T05:37:43.465Z,32.28
2023-01-04T05:40:16.623Z,29.73
2023-01-04T05:42:49.457Z,34.63
2023-01-04T05:45:22.032Z,27.55
2023-01-04T05:47:55.413Z,25.50
2023-01-04T05:50:28.123Z,36.10
2023-01-04T05:53:01.171Z,30.50
2023-01-04T05:55:34.013Z,36.50
2023-01-04T05:58:06.929Z,33.40
2023-01-04T06:00:39.599Z,31.02
2023-01-04T06:03:12.584Z,30.58
2023-01-04T06:05:49.539Z,34.78
2023-01-04T06:08:22.377Z,34.65
2023-01-04T06:10:55.247Z,34.60
2023-01-04T06:13:28.207Z,83.82
2023-01-04T06:16:00.722Z,148.75
2023-01-04T06:18:33.701Z,129.15
2023-01-04T06:21:06.299Z,75.72
2023-01-04T06:23:39.184Z,48.78
2023-01-04T06:26:12.397Z,60.92
2023-01-04T06:28:45.428Z,44.90
2023-01-04T06:31:18.077Z,40.58
2023-01-04T06:33:51.464Z,40.60
2023-01-04T06:36:24.098Z,25.73
2023-01-04T06:39:00.569Z,29.02
2023-01-04T06:41:33.186Z,32.90
2023-01-04T06:44:06.316Z,41.00
2023-01-04T06:46:38.973Z,35.42
2023-01-04T06:49:11.975Z,34.85
2023-01-04T06:51:44.516Z,31.48
2023-01-04T06:54:17.400Z,39.38
2023-01-04T06:56:49.920Z,38.45
2023-01-04T06:59:22.904Z,39.95
2023-01-04T07:01:55.511Z,55.20
2023-01-04T07:04:28.532Z,51.30
2023-01-04T07:07:02.009Z,40.63
2023-01-04T07:09:36.344Z,39.90
2023-01-04T07:12:09.377Z,35.85
2023-01-04T07:14:42.482Z,33.28
2023-01-04T07:17:15.116Z,28.60
2023-01-04T07:19:48.031Z,29.63
2023-01-04T07:22:20.560Z,24.55
2023-01-04T07:24:53.426Z,24.48
2023-01-04T07:27:25.910Z,25.30
2023-01-04T07:29:58.841Z,32.33
2023-01-04T07:32:31.495Z,36.35
2023-01-04T07:35:04.549Z,22.75
2023-01-04T07:37:37.117Z,24.33
2023-01-04T07:40:10.553Z,27.35
2023-01-04T07:42:43.108Z,29.88
2023-01-04T07:45:16.062Z,33.00
2023-01-04T07:47:48.602Z,30.73
2023-01-04T07:50:21.524Z,26.77
2023-01-04T07:52:54.025Z,38.95
2023-01-04T07:55:26.891Z,24.95
2023-01-04T07:57:59.437Z,24.73
2023-01-04T08:00:32.311Z,26.20
2023-01-04T08:03:05.010Z,35.03
2023-01-04T08:05:38.038Z,28.67
2023-01-04T08:08:10.521Z,29.05
2023-01-04T08:10:43.509Z,35.10
2023-01-04T08:13:16.011Z,31.98
2023-01-04T08:15:55.953Z,28.27
2023-01-04T08:18:28.632Z,33.42
2023-01-04T08:21:05.191Z,36.92
2023-01-04T08:23:37.830Z,20.15
2023-01-04T08:26:12.162Z,24.85
2023-01-04T08:28:45.014Z,27.92
2023-01-04T08:31:20.166Z,22.98
2023-01-04T08:33:53.550Z,20.83
2023-01-04T08:36:28.106Z,24.25
2023-01-04T08:39:02.423Z,21.35
2023-01-04T08:42:04.210Z,25.95
2023-01-04T08:44:40.378Z,26.17
2023-01-04T08:47:13.610Z,25.52
2023-01-04T08:49:46.398Z,21.63
2023-01-04T08:52:19.370Z,24.23
2023-01-04T08:54:52.232Z,24.58
2023-01-04T08:57:25.070Z,28.27
2023-01-04T08:59:57.706Z,22.80
2023-01-04T09:02:30.800Z,23.55
2023-01-04T09:05:04.525Z,24.92
2023-01-04T09:07:37.738Z,25.75
2023-01-04T09:10:10.422Z,17.60
2023-01-04T09:12:43.424Z,22.67
2023-01-04T09:15:17.077Z,22.33
2023-01-04T09:18:20.573Z,27.38
2023-01-04T09:20:43.136Z,24.48
2023-01-04T09:23:16.061Z,11.80
2023-01-04T09:25:48.608Z,20.33
2023-01-04T09:28:21.668Z,12.98
2023-01-04T09:30:54.250Z,18.92
2023-01-04T09:33:47.811Z,15.23
2023-01-04T09:36:19.873Z,12.70
2023-01-04T09:38:52.796Z,15.52
2023-01-04T09:41:28.532Z,15.85
2023-01-04T09:44:02.816Z,21.77
2023-01-04T09:46:39.458Z,21.65
2023-01-04T09:49:12.447Z,18.58
2023-01-04T09:52:06.197Z,21.08
2023-01-04T09:54:51.389Z,15.07
2023-01-04T09:57:29.550Z,19.05
2023-01-04T10:00:06.108Z,18.23
2023-01-04T10:02:50.200Z,27.38
2023-01-04T10:05:26.366Z,28.70
2023-01-04T10:07:59.024Z,16.20
2023-01-04T10:10:31.933Z,24.95
2023-01-04T10:13:10.615Z,28.80
2023-01-04T10:16:02.397Z,33.60
2023-01-04T10:21:39.050Z,36.10
2023-01-04T10:24:25.790Z,34.10
2023-01-04T10:27:08.174Z,28.67
2023-01-04T10:29:43.787Z,23.52
2023-01-04T10:32:20.649Z,19.02
2023-01-04T10:34:53.674Z,28.00
2023-01-04T10:37:33.742Z,23.95
2023-01-04T10:40:12.947Z,16.02
2023-01-04T10:42:47.794Z,15.80
2023-01-04T10:45:22.823Z,19.65
2023-01-04T10:48:16.093Z,26.85
2023-01-04T10:50:48.719Z,15.02
2023-01-04T10:53:34.446Z,23.17
2023-01-04T10:56:27.644Z,18.50
2023-01-04T10:59:04.752Z,13.82
2023-01-04T11:01:37.529Z,16.25
2023-01-04T11:04:23.310Z,27.25
2023-01-04T11:07:11.200Z,9.65
2023-01-04T11:09:50.447Z,11.07
2023-01-04T11:12:24.007Z,13.50
2023-01-04T11:14:56.939Z,14.52
2023-01-04T11:17:32.134Z,15.93
2023-01-04T11:20:05.380Z,15.90
2023-01-04T11:22:41.114Z,18.13
2023-01-04T11:25:35.192Z,16.92
2023-01-04T11:28:30.713Z,20.58
2023-01-04T11:31:23.426Z,14.90
2023-01-04T11:34:00.522Z,14.88
2023-01-04T11:36:40.659Z,19.13
2023-01-04T11:39:26.785Z,19.00
2023-01-04T11:42:04.859Z,11.27
2023-01-04T11:44:37.832Z,11.70
2023-01-04T11:47:22.524Z,7.20
2023-01-04T11:49:56.481Z,6.13
2023-01-04T11:52:33.620Z,5.95
2023-01-04T11:55:25.393Z,7.00
2023-01-04T11:58:08.493Z,5.93
2023-01-04T12:00:57.749Z,7.30
2023-01-04T12:03:33.004Z,10.50
2023-01-04T12:06:28.793Z,7.88
2023-01-04T12:09:01.821Z,9.48
2023-01-04T12:11:36.073Z,8.57
2023-01-04T12:14:19.661Z,4.50
2023-01-04T12:17:01.457Z,5.90
2023-01-04T12:22:16.801Z,8.02
2023-01-04T12:24:52.832Z,6.88
2023-01-04T12:27:27.839Z,2.90
2023-01-04T12:30:02.523Z,4.15
2023-01-04T12:32:35.217Z,4.05
2023-01-04T12:35:28.022Z,5.05
2023-01-04T12:38:00.516Z,10.05
2023-01-04T12:40:45.738Z,6.15
2023-01-04T12:43:26.109Z,2.42
2023-01-04T12:46:37.637Z,5.68
2023-01-04T12:49:22.641Z,6.32
2023-01-04T12:55:05.148Z,2.63
2023-01-04T12:57:38.761Z,4.97
2023-01-04T13:00:15.493Z,3.28
2023-01-04T13:03:08.562Z,3.67
2023-01-04T13:05:57.889Z,6.55
2023-01-04T13:08:35.547Z,11.70
2023-01-04T13:11:22.670Z,4.05
2023-01-04T13:14:10.095Z,3.65
2023-01-04T13:17:03.550Z,5.70
2023-01-04T13:19:38.471Z,5.32
2023-01-04T13:22:16.538Z,5.07
2023-01-04T13:24:51.161Z,4.85
2023-01-04T13:27:24.603Z,8.93
2023-01-04T13:29:57.709Z,8.43
2023-01-04T13:32:35.589Z,5.63
2023-01-04T13:35:15.511Z,8.25
2023-01-04T13:37:49.126Z,9.95
2023-01-04T13:40:24.404Z,7.05
2023-01-04T13:43:09.679Z,7.53
2023-01-04T13:45:49.314Z,6.80
2023-01-04T13:48:23.294Z,10.95
2023-01-04T13:51:01.029Z,6.32
2023-01-04T13:53:33.709Z,10.98
2023-01-04T13:56:06.773Z,13.13
2023-01-04T13:58:39.334Z,15.27
2023-01-04T14:01:12.246Z,8.85
2023-01-04T14:03:50.986Z,13.63
2023-01-04T14:06:47.613Z,11.05
2023-01-04T14:09:25.120Z,8.30
2023-01-04T14:12:06.156Z,7.70
2023-01-04T14:14:39.680Z,8.15
2023-01-04T14:17:12.848Z,8.57
2023-01-04T14:19:55.634Z,10.25
2023-01-04T14:22:30.147Z,5.78
2023-01-04T14:25:23.054Z,4.10
2023-01-04T14:28:15.835Z,3.10
2023-01-04T14:31:08.373Z,8.50
2023-01-04T14:33:46.303Z,6.63
2023-01-04T14:36:20.717Z,6.68
2023-01-04T14:39:13.315Z,8.38
2023-01-04T14:41:48.841Z,8.70
2023-01-04T14:44:23.116Z,8.98
2023-01-04T14:46:56.828Z,5.45
2023-01-04T14:49:30.360Z,5.03
2023-01-04T14:52:04.078Z,8.90
2023-01-04T14:54:39.423Z,3.88
2023-01-04T14:57:12.110Z,7.38
2023-01-04T14:59:46.320Z,6.10
2023-01-04T15:02:19.681Z,7.50
2023-01-04T15:04:53.092Z,7.22
2023-01-04T15:07:32.767Z,6.95
2023-01-04T15:10:06.831Z,6.82
2023-01-04T15:12:39.465Z,7.07
2023-01-04T15:15:13.349Z,14.98
2023-01-04T15:17:46.029Z,16.73
2023-01-04T15:20:19.099Z,14.65
2023-01-04T15:22:51.611Z,8.00
2023-01-04T15:25:24.845Z,6.28
2023-01-04T15:27:57.553Z,7.88
2023-01-04T15:30:30.447Z,10.10
2023-01-04T15:33:02.963Z,7.60
2023-01-04T15:35:36.149Z,6.68
2023-01-04T15:38:14.412Z,8.80
2023-01-04T15:40:51.398Z,8.88
2023-01-04T15:43:25.036Z,8.18
2023-01-04T15:46:02.600Z,18.27
2023-01-04T15:48:36.026Z,10.68
2023-01-04T15:51:09.795Z,17.02
2023-01-04T15:53:42.271Z,14.82
2023-01-04T15:56:15.389Z,15.77
2023-01-04T15:58:48.345Z,11.07
2023-01-04T16:01:21.539Z,11.13
2023-01-04T16:03:54.496Z,17.50
2023-01-04T16:06:27.616Z,9.55
2023-01-04T16:09:02.136Z,6.97
2023-01-04T16:11:35.230Z,10.57
2023-01-04T16:14:07.776Z,12.40
2023-01-04T16:16:40.615Z,12.70
2023-01-04T16:19:13.262Z,7.80
2023-01-04T16:21:46.171Z,8.88
2023-01-04T16:24:45.328Z,10.88
2023-01-04T16:27:12.966Z,9.20
2023-01-04T16:29:45.615Z,9.55
2023-01-04T16:32:18.563Z,10.15
2023-01-04T16:34:51.428Z,12.82
2023-01-04T16:37:26.904Z,17.98
2023-01-04T16:40:08.120Z,19.67
2023-01-04T16:42:43.123Z,9.75
2023-01-04T16:45:15.827Z,14.05
2023-01-04T16:47:50.679Z,9.70
2023-01-04T16:50:23.892Z,11.65
2023-01-04T16:52:56.783Z,10.18
2023-01-04T16:55:29.333Z,11.10
2023-01-04T16:58:03.155Z,9.57
2023-01-04T17:00:36.249Z,13.95
2023-01-04T17:03:09.171Z,9.32
2023-01-04T17:05:41.664Z,17.40
2023-01-04T17:08:14.627Z,21.27
2023-01-04T17:10:47.506Z,12.48
2023-01-04T17:13:20.355Z,11.13
2023-01-04T17:15:52.895Z,9.68
2023-01-04T17:18:26.040Z,10.20
2023-01-04T17:21:31.499Z,6.13
2023-01-04T17:23:54.266Z,13.15
2023-01-04T17:26:28.277Z,10.82
2023-01-04T17:29:01.674Z,8.65
2023-01-04T17:31:35.546Z,12.45
2023-01-04T17:34:10.974Z,12.55
2023-01-04T17:36:43.820Z,14.95
2023-01-04T17:39:17.332Z,35.63
2023-01-04T17:41:49.956Z,55.78
2023-01-04T17:44:22.869Z,28.48
2023-01-04T17:46:55.365Z,18.27
2023-01-04T17:49:32.036Z,15.07
2023-01-04T17:52:07.106Z,21.85
2023-01-04T17:54:52.457Z,9.30
2023-01-04T17:57:25.466Z,32.83
2023-01-04T17:59:58.233Z,14.70
2023-01-04T18:02:32.409Z,22.42
2023-01-04T18:05:06.277Z,28.15
2023-01-04T18:07:39.252Z,20.35
2023-01-04T18:10:33.144Z,26.17
2023-01-04T18:13:07.028Z,36.17
2023-01-04T18:15:55.101Z,86.25
2023-01-04T18:18:33.232Z,100.88
2023-01-04T18:21:31.251Z,28.58
2023-01-04T18:29:50.069Z,23.55
2023-01-04T18:32:23.923Z,14.55
2023-01-04T18:34:56.876Z,19.80
2023-01-04T18:37:29.412Z,19.83
2023-01-04T18:40:03.740Z,23.33
2023-01-04T18:42:37.452Z,20.85
2023-01-04T18:45:10.531Z,8.90
2023-01-04T18:47:43.206Z,9.07
2023-01-04T18:50:16.520Z,9.82
2023-01-04T18:52:49.038Z,9.93
2023-01-04T18:55:21.910Z,9.80
2023-01-04T18:57:54.418Z,11.35
2023-01-04T19:00:30.177Z,7.20
2023-01-04T19:03:02.744Z,6.32
2023-01-04T19:05:35.728Z,10.27
2023-01-04T19:08:08.555Z,9.23
2023-01-04T19:10:42.008Z,11.27
2023-01-04T19:13:15.347Z,6.43
2023-01-04T19:15:48.395Z,8.23
2023-01-04T19:18:23.322Z,9.38
2023-01-04T19:21:00.336Z,19.83
2023-01-04T19:23:33.382Z,5.38
2023-01-04T19:26:07.472Z,7.72
2023-01-04T19:28:39.992Z,3.70
2023-01-04T19:31:13.694Z,4.38
2023-01-04T19:33:46.798Z,5.82
2023-01-04T19:36:20.093Z,6.28
2023-01-04T19:38:54.142Z,5.03
2023-01-04T19:41:33.778Z,9.45
2023-01-04T19:44:07.726Z,3.40
2023-01-04T19:46:40.698Z,5.10
2023-01-04T19:49:15.432Z,9.68
2023-01-04T19:51:49.551Z,5.05
2023-01-04T19:54:25.547Z,5.22
2023-01-04T19:56:58.846Z,4.10
2023-01-04T19:59:31.403Z,4.05
2023-01-04T20:02:04.443Z,5.07
2023-01-04T20:04:37.157Z,7.07
2023-01-04T20:07:10.119Z,4.88
2023-01-04T20:09:42.836Z,6.95
2023-01-04T20:12:15.700Z,6.90
2023-01-04T20:14:48.328Z,4.03
2023-01-04T20:17:21.153Z,4.75
2023-01-04T20:19:53.722Z,3.55
2023-01-04T20:22:26.693Z,4.80
2023-01-04T20:24:59.847Z,5.90
2023-01-04T20:27:32.803Z,4.60
2023-01-04T20:30:05.661Z,6.55
2023-01-04T20:32:38.689Z,5.90
2023-01-04T20:35:11.456Z,5.55
2023-01-04T20:37:44.435Z,4.15
2023-01-04T20:40:17.072Z,4.32
2023-01-04T20:43:08.284Z,2.10
2023-01-04T20:45:41.623Z,2.65
2023-01-04T20:48:15.083Z,3.15
2023-01-04T20:50:47.960Z,2.53
2023-01-04T20:53:20.903Z,3.08
2023-01-04T20:55:53.678Z,4.97
2023-01-04T20:58:26.629Z,2.00
2023-01-04T21:01:01.898Z,5.70
2023-01-04T21:06:25.548Z,5.72
2023-01-04T21:08:58.513Z,2.83
2023-01-04T21:11:31.080Z,3.90
2023-01-04T21:14:04.321Z,3.85
2023-01-04T21:16:36.914Z,3.08
2023-01-04T21:19:09.889Z,4.68
2023-01-04T21:21:42.483Z,3.08
2023-01-04T21:24:15.401Z,2.50
2023-01-04T21:26:47.976Z,1.73
2023-01-04T21:29:21.264Z,3.67
2023-01-04T21:31:54.334Z,5.40
2023-01-04T21:34:28.352Z,3.45
2023-01-04T21:37:00.857Z,4.35
2023-01-04T21:39:33.790Z,0.77
2023-01-04T21:42:06.356Z,2.08
2023-01-04T21:44:39.207Z,1.70
2023-01-04T21:47:11.762Z,2.78
2023-01-04T21:49:44.738Z,2.67
2023-01-04T21:52:17.267Z,1.20
2023-01-04T21:54:50.184Z,2.92
2023-01-04T21:57:22.685Z,0.80
2023-01-04T21:59:55.622Z,1.60
2023-01-04T22:02:28.313Z,0.82
2023-01-04T22:05:01.390Z,1.92
2023-01-04T22:07:33.928Z,1.33
2023-01-04T22:10:07.142Z,3.47
2023-01-04T22:12:39.731Z,0.65
2023-01-04T22:15:12.592Z,1.20
2023-01-04T22:17:45.276Z,1.20
2023-01-04T22:20:18.347Z,0.93
2023-01-04T22:22:50.878Z,0.57
2023-01-04T22:25:23.991Z,1.17
2023-01-04T22:27:56.598Z,1.45
2023-01-04T22:30:29.622Z,1.73
2023-01-04T22:33:02.177Z,2.85
2023-01-04T22:35:37.840Z,7.32
2023-01-04T22:38:10.348Z,8.38
2023-01-04T22:40:43.282Z,2.95
2023-01-04T22:43:15.806Z,0.90
2023-01-04T22:45:48.775Z,1.38
2023-01-04T22:48:21.333Z,3.30
2023-01-04T22:50:54.318Z,1.65
2023-01-04T22:53:26.892Z,1.23
2023-01-04T22:56:18.313Z,0.50
2023-01-04T22:58:54.976Z,0.60
2023-01-04T23:01:29.643Z,0.73
2023-01-04T23:04:03.215Z,0.60
2023-01-04T23:06:36.761Z,0.73
2023-01-04T23:09:11.010Z,1.52
2023-01-04T23:11:44.191Z,1.17
2023-01-04T23:14:17.415Z,0.88
2023-01-04T23:16:50.400Z,0.85
2023-01-04T23:19:23.091Z,1.02
2023-01-04T23:21:55.925Z,1.20
2023-01-04T23:24:28.479Z,0.85
2023-01-04T23:27:01.669Z,1.67
2023-01-04T23:29:34.482Z,1.38
2023-01-04T23:32:07.459Z,1.40
2023-01-04T23:34:40.156Z,0.70
2023-01-04T23:37:13.091Z,3.28
2023-01-04T23:39:45.705Z,1.75
2023-01-04T23:42:19.072Z,1.20
2023-01-04T23:44:51.801Z,1.38
2023-01-04T23:47:24.769Z,2.72
2023-01-04T23:49:57.448Z,1.15
2023-01-04T23:52:30.331Z,3.25
2023-01-04T23:55:02.879Z,1.13
2023-01-04T23:57:35.883Z,1.30
